createdAt,value
2018-09-26T00:00:06.248Z,2.33
2018-09-26T00:02:37.631Z,2.34
2018-09-26T00:05:08.271Z,2.40
2018-09-26T00:07:38.849Z,2.38
2018-09-26T00:10:11.433Z,2.34
2018-09-26T00:12:41.774Z,2.34
2018-09-26T00:15:11.517Z,2.31
2018-09-26T00:17:41.218Z,2.31
2018-09-26T00:20:12.094Z,2.24
2018-09-26T00:22:42.077Z,2.30
2018-09-26T00:25:11.787Z,2.34
2018-09-26T00:27:41.502Z,2.35
2018-09-26T00:30:11.170Z,2.40
2018-09-26T00:32:40.833Z,2.56
2018-09-26T00:35:10.468Z,2.70
2018-09-26T00:37:40.569Z,2.83
2018-09-26T00:40:10.178Z,2.89
2018-09-26T00:42:40.406Z,2.96
2018-09-26T00:45:10.052Z,2.97
2018-09-26T00:47:39.740Z,2.92
2018-09-26T00:50:09.390Z,2.92
2018-09-26T00:52:39.421Z,3.01
2018-09-26T00:55:09.039Z,2.97
2018-09-26T00:57:38.743Z,2.99
2018-09-26T01:00:08.454Z,2.97
2018-09-26T01:02:38.510Z,2.96
2018-09-26T01:05:08.149Z,3.06
2018-09-26T01:07:38.089Z,3.10
2018-09-26T01:10:07.730Z,3.09
2018-09-26T01:12:37.499Z,3.09
2018-09-26T01:15:07.397Z,3.10
2018-09-26T01:17:37.438Z,3.14
2018-09-26T01:20:07.153Z,3.13
2018-09-26T01:22:36.921Z,3.14
2018-09-26T01:25:06.627Z,3.16
2018-09-26T01:27:36.568Z,3.18
2018-09-26T01:30:07.114Z,3.18
2018-09-26T01:32:37.122Z,3.14
2018-09-26T01:35:06.790Z,3.15
2018-09-26T01:37:36.474Z,3.11
2018-09-26T01:40:07.037Z,3.09
2018-09-26T01:42:36.821Z,3.08
2018-09-26T01:45:06.753Z,3.07
2018-09-26T01:47:36.815Z,3.05
2018-09-26T01:50:06.510Z,3.00
2018-09-26T01:52:36.218Z,2.96
2018-09-26T01:55:06.364Z,3.01
2018-09-26T01:57:37.406Z,2.92
2018-09-26T02:00:08.564Z,2.91
2018-09-26T02:02:38.224Z,2.91
2018-09-26T02:05:07.898Z,2.93
2018-09-26T02:07:37.583Z,2.88
2018-09-26T02:10:07.665Z,2.95
2018-09-26T02:12:37.361Z,2.96
2018-09-26T02:15:07.039Z,2.93
2018-09-26T02:17:36.681Z,2.90
2018-09-26T02:20:06.674Z,2.86
2018-09-26T02:22:36.385Z,2.83
2018-09-26T02:25:06.090Z,2.84
2018-09-26T02:27:36.405Z,2.87
2018-09-26T02:30:06.404Z,2.92
2018-09-26T02:32:36.106Z,2.99
2018-09-26T02:35:05.797Z,3.06
2018-09-26T02:37:35.482Z,3.14
2018-09-26T02:40:05.154Z,3.19
2018-09-26T02:42:34.755Z,3.26
2018-09-26T02:45:04.403Z,3.32
2018-09-26T02:47:34.470Z,3.47
2018-09-26T02:50:04.266Z,3.56
2018-09-26T02:52:33.917Z,3.58
2018-09-26T02:55:03.552Z,3.57
2018-09-26T02:57:33.214Z,3.56
2018-09-26T03:00:02.898Z,3.60
2018-09-26T03:02:32.976Z,3.66
2018-09-26T03:05:02.673Z,3.65
2018-09-26T03:07:32.379Z,3.67
2018-09-26T03:10:02.526Z,3.72
2018-09-26T03:12:32.247Z,3.78
2018-09-26T03:15:02.762Z,3.82
2018-09-26T03:17:32.418Z,3.87
2018-09-26T03:20:02.634Z,3.84
2018-09-26T03:22:32.304Z,3.84
2018-09-26T03:25:01.974Z,3.86
2018-09-26T03:27:31.658Z,3.86
2018-09-26T03:30:01.854Z,3.91
2018-09-26T03:32:31.522Z,3.89
2018-09-26T03:35:01.201Z,3.89
2018-09-26T03:37:30.897Z,3.93
2018-09-26T03:40:00.558Z,3.99
2018-09-26T03:42:30.662Z,4.01
2018-09-26T03:45:00.750Z,4.00
2018-09-26T03:47:30.413Z,4.05
2018-09-26T03:50:00.135Z,4.03
2018-09-26T03:52:29.801Z,4.02
2018-09-26T03:55:00.535Z,4.03
2018-09-26T03:57:31.396Z,4.06
2018-09-26T04:00:01.836Z,4.04
2018-09-26T04:02:31.534Z,4.04
2018-09-26T04:05:01.332Z,4.03
2018-09-26T04:07:31.031Z,4.07
2018-09-26T04:10:01.074Z,4.11
2018-09-26T04:12:30.818Z,4.06
2018-09-26T04:15:00.473Z,4.05
2018-09-26T04:17:30.566Z,3.98
2018-09-26T04:20:00.193Z,3.97
2018-09-26T04:22:29.980Z,3.96
2018-09-26T04:24:59.649Z,3.93
2018-09-26T04:27:29.490Z,3.87
2018-09-26T04:29:59.055Z,3.91
2018-09-26T04:32:29.305Z,3.86
2018-09-26T04:34:58.933Z,3.80
2018-09-26T04:37:31.641Z,3.79
2018-09-26T04:40:02.191Z,3.73
2018-09-26T04:42:37.430Z,3.68
2018-09-26T04:45:07.758Z,3.54
2018-09-26T04:47:39.959Z,3.48
2018-09-26T04:50:14.338Z,3.46
2018-09-26T04:52:45.677Z,3.44
2018-09-26T04:55:16.874Z,3.44
2018-09-26T04:57:46.730Z,3.44
2018-09-26T05:00:16.443Z,3.42
2018-09-26T05:02:46.103Z,3.44
2018-09-26T05:05:16.265Z,3.37
2018-09-26T05:07:45.934Z,3.36
2018-09-26T05:10:15.641Z,3.35
2018-09-26T05:12:46.778Z,3.34
2018-09-26T05:15:16.817Z,3.39
2018-09-26T05:17:46.518Z,3.48
2018-09-26T05:20:16.705Z,3.53
2018-09-26T05:22:47.500Z,3.56
2018-09-26T05:25:17.183Z,3.56
2018-09-26T05:27:46.869Z,3.61
2018-09-26T05:30:16.532Z,3.65
2018-09-26T05:32:49.753Z,3.73
2018-09-26T05:35:19.420Z,3.71
2018-09-26T05:37:49.867Z,3.76
2018-09-26T05:40:19.491Z,3.92
2018-09-26T05:42:49.176Z,4.17
2018-09-26T05:45:20.078Z,4.47
2018-09-26T05:47:49.734Z,4.59
2018-09-26T05:50:20.467Z,4.67
2018-09-26T05:52:50.110Z,4.78
2018-09-26T05:55:20.381Z,4.91
2018-09-26T05:57:50.023Z,4.93
2018-09-26T06:00:19.638Z,4.96
2018-09-26T06:02:49.297Z,5.05
2018-09-26T06:05:20.107Z,5.16
2018-09-26T06:07:49.765Z,5.35
2018-09-26T06:10:19.399Z,5.53
2018-09-26T06:12:49.020Z,5.69
2018-09-26T06:15:18.701Z,5.80
2018-09-26T06:17:48.325Z,5.95
2018-09-26T06:20:18.478Z,6.10
2018-09-26T06:22:48.310Z,6.34
2018-09-26T06:25:22.242Z,6.52
2018-09-26T06:27:53.221Z,6.74
2018-09-26T06:30:23.574Z,6.99
2018-09-26T06:32:54.964Z,7.17
2018-09-26T06:35:25.222Z,7.29
2018-09-26T06:37:54.862Z,7.39
2018-09-26T06:40:25.464Z,7.58
2018-09-26T06:42:55.107Z,7.77
2018-09-26T06:45:25.443Z,7.90
2018-09-26T06:47:55.199Z,8.04
2018-09-26T06:50:25.219Z,8.17
2018-09-26T06:52:55.557Z,8.25
2018-09-26T06:55:25.226Z,8.32
2018-09-26T06:57:55.869Z,8.36
2018-09-26T07:00:25.879Z,8.44
2018-09-26T07:02:56.579Z,8.58
2018-09-26T07:05:27.697Z,8.75
2018-09-26T07:07:58.277Z,8.85
2018-09-26T07:10:27.931Z,8.89
2018-09-26T07:12:57.584Z,8.92
2018-09-26T07:15:28.302Z,9.03
2018-09-26T07:17:59.030Z,9.15
2018-09-26T07:20:29.101Z,9.20
2018-09-26T07:22:59.567Z,9.20
2018-09-26T07:25:29.983Z,9.22
2018-09-26T07:27:59.782Z,9.25
2018-09-26T07:30:29.487Z,9.33
2018-09-26T07:33:00.089Z,9.42
2018-09-26T07:35:30.454Z,9.52
2018-09-26T07:38:01.871Z,9.56
2018-09-26T07:40:33.355Z,9.65
2018-09-26T07:43:04.365Z,9.68
2018-09-26T07:45:34.333Z,9.66
2018-09-26T07:48:05.005Z,9.64
2018-09-26T07:50:36.087Z,9.70
2018-09-26T07:53:07.377Z,9.76
2018-09-26T07:55:41.247Z,9.76
2018-09-26T07:58:12.612Z,9.79
2018-09-26T08:00:43.172Z,9.85
2018-09-26T08:03:12.817Z,9.89
2018-09-26T08:05:43.474Z,9.92
2018-09-26T08:08:15.253Z,9.94
2018-09-26T08:10:46.245Z,9.92
2018-09-26T08:13:17.893Z,9.90
2018-09-26T08:15:47.554Z,9.88
2018-09-26T08:18:19.646Z,9.84
2018-09-26T08:20:49.654Z,9.83
2018-09-26T08:23:19.605Z,9.88
2018-09-26T08:25:49.239Z,9.84
2018-09-26T08:28:19.365Z,9.94
2018-09-26T08:30:50.302Z,9.98
2018-09-26T08:33:24.585Z,10.01
2018-09-26T08:35:56.091Z,10.11
2018-09-26T08:38:29.593Z,10.16
2018-09-26T08:40:59.312Z,10.24
2018-09-26T08:43:29.033Z,10.23
2018-09-26T08:45:59.296Z,10.29
2018-09-26T08:48:30.584Z,10.36
2018-09-26T08:51:01.854Z,10.40
2018-09-26T08:54:06.188Z,10.48
2018-09-26T08:56:52.548Z,10.56
2018-09-26T08:59:22.202Z,10.60
2018-09-26T09:01:52.164Z,10.65
2018-09-26T09:04:21.875Z,10.66
2018-09-26T09:06:51.480Z,10.70
2018-09-26T09:09:21.125Z,10.82
2018-09-26T09:11:52.954Z,10.81
2018-09-26T09:14:23.604Z,10.86
2018-09-26T09:16:54.781Z,10.89
2018-09-26T09:19:25.634Z,11.05
2018-09-26T09:21:55.311Z,11.14
2018-09-26T09:24:25.922Z,11.23
2018-09-26T09:26:55.978Z,11.29
2018-09-26T09:29:28.579Z,11.30
2018-09-26T09:31:59.053Z,11.28
2018-09-26T09:34:29.406Z,11.33
2018-09-26T09:36:59.884Z,11.47
2018-09-26T09:39:30.533Z,11.47
2018-09-26T09:42:00.512Z,11.50
2018-09-26T09:44:30.423Z,11.42
2018-09-26T09:47:00.132Z,11.43
2018-09-26T09:49:30.342Z,11.47
2018-09-26T09:52:00.443Z,11.46
2018-09-26T09:54:33.442Z,11.54
2018-09-26T09:57:04.125Z,11.67
2018-09-26T09:59:33.815Z,11.70
2018-09-26T10:02:03.436Z,11.65
2018-09-26T10:04:34.093Z,11.71
2018-09-26T10:07:04.267Z,11.91
2018-09-26T10:09:35.063Z,11.94
2018-09-26T10:12:05.268Z,11.87
2018-09-26T10:14:37.021Z,11.93
2018-09-26T10:17:08.392Z,11.95
2018-09-26T10:19:38.378Z,12.11
2018-09-26T10:22:10.125Z,12.10
2018-09-26T10:24:41.076Z,12.21
2018-09-26T10:27:11.528Z,12.24
2018-09-26T10:29:42.497Z,12.23
2018-09-26T10:32:12.224Z,12.37
2018-09-26T10:34:43.605Z,12.59
2018-09-26T10:37:13.741Z,12.69
2018-09-26T10:39:50.337Z,12.80
2018-09-26T10:42:21.609Z,12.66
2018-09-26T10:44:52.849Z,12.58
2018-09-26T10:47:23.014Z,12.55
2018-09-26T10:49:53.274Z,12.66
2018-09-26T10:52:23.909Z,12.75
2018-09-26T10:54:53.513Z,12.82
2018-09-26T10:57:23.277Z,13.02
2018-09-26T10:59:55.542Z,13.08
2018-09-26T11:02:25.293Z,13.11
2018-09-26T11:04:55.009Z,13.21
2018-09-26T11:07:26.221Z,13.33
2018-09-26T11:09:56.873Z,13.43
2018-09-26T11:12:30.381Z,13.44
2018-09-26T11:17:36.329Z,13.59
2018-09-26T11:20:07.903Z,13.77
2018-09-26T11:22:37.896Z,13.85
2018-09-26T11:25:09.461Z,14.00
2018-09-26T11:27:40.267Z,14.13
2018-09-26T11:30:09.944Z,14.20
2018-09-26T11:32:40.324Z,14.25
2018-09-26T11:35:11.281Z,14.28
2018-09-26T11:37:41.399Z,14.30
2018-09-26T11:40:11.457Z,14.31
2018-09-26T11:42:41.076Z,14.33
2018-09-26T11:45:13.230Z,14.38
2018-09-26T11:47:43.559Z,14.34
2018-09-26T11:50:14.080Z,14.36
2018-09-26T11:52:45.370Z,14.55
2018-09-26T11:55:16.101Z,14.71
2018-09-26T11:57:45.853Z,14.67
2018-09-26T12:00:16.396Z,14.72
2018-09-26T12:02:52.493Z,14.76
2018-09-26T12:05:22.182Z,14.72
2018-09-26T12:07:52.530Z,14.68
2018-09-26T12:10:24.579Z,14.58
2018-09-26T12:12:55.300Z,14.45
2018-09-26T12:15:28.194Z,14.43
2018-09-26T12:17:57.850Z,14.50
2018-09-26T12:20:28.211Z,14.52
2018-09-26T12:22:58.850Z,14.54
2018-09-26T12:25:29.277Z,14.65
2018-09-26T12:28:00.233Z,14.81
2018-09-26T12:30:35.477Z,14.94
2018-09-26T12:33:05.159Z,15.01
2018-09-26T12:35:38.151Z,15.09
2018-09-26T12:38:07.863Z,15.05
2018-09-26T12:40:39.216Z,15.01
2018-09-26T12:43:09.222Z,14.96
2018-09-26T12:45:42.976Z,14.93
2018-09-26T12:48:15.505Z,14.94
2018-09-26T12:50:45.231Z,14.98
2018-09-26T12:53:19.324Z,15.15
2018-09-26T12:55:49.235Z,15.26
2018-09-26T12:58:21.723Z,15.33
2018-09-26T13:00:52.404Z,15.40
2018-09-26T13:03:22.906Z,15.42
2018-09-26T13:05:53.162Z,15.38
2018-09-26T13:08:38.605Z,15.35
2018-09-26T13:11:10.742Z,15.33
2018-09-26T13:13:47.396Z,15.37
2018-09-26T13:16:17.307Z,15.38
2018-09-26T13:18:47.088Z,15.46
2018-09-26T13:21:18.841Z,15.52
2018-09-26T13:23:50.111Z,15.53
2018-09-26T13:26:21.824Z,15.61
2018-09-26T13:28:52.569Z,15.56
2018-09-26T13:31:22.942Z,15.59
2018-09-26T13:33:54.117Z,15.59
2018-09-26T13:36:26.942Z,15.62
2018-09-26T13:38:57.305Z,15.59
2018-09-26T13:41:28.637Z,15.63
2018-09-26T13:44:00.320Z,15.57
2018-09-26T13:46:31.130Z,15.52
2018-09-26T13:49:05.117Z,15.57
2018-09-26T13:51:36.522Z,15.60
2018-09-26T13:54:06.889Z,15.65
2018-09-26T13:56:37.130Z,15.69
2018-09-26T13:59:08.318Z,15.74
2018-09-26T14:01:40.303Z,15.73
2018-09-26T14:04:09.962Z,15.73
2018-09-26T14:06:40.600Z,15.70
2018-09-26T14:09:15.535Z,15.68
2018-09-26T14:11:46.553Z,15.69
2018-09-26T14:14:17.080Z,15.72
2018-09-26T14:16:49.302Z,15.75
2018-09-26T14:19:22.662Z,15.66
2018-09-26T14:24:55.279Z,15.58
2018-09-26T14:27:26.657Z,15.54
2018-09-26T14:30:05.607Z,15.49
2018-09-26T14:32:38.358Z,15.46
2018-09-26T14:35:12.327Z,15.45
2018-09-26T14:37:42.423Z,15.40
2018-09-26T14:40:12.694Z,15.32
2018-09-26T14:42:43.311Z,15.22
2018-09-26T14:45:16.454Z,15.15
2018-09-26T14:47:46.967Z,15.08
2018-09-26T14:50:18.839Z,15.03
2018-09-26T14:52:51.820Z,15.02
2018-09-26T14:55:23.869Z,15.00
2018-09-26T14:57:55.595Z,14.93
2018-09-26T15:00:29.781Z,14.89
2018-09-26T15:03:02.390Z,14.83
2018-09-26T15:05:33.185Z,14.82
2018-09-26T15:08:05.628Z,14.83
2018-09-26T15:10:35.700Z,14.80
2018-09-26T15:13:07.097Z,14.74
2018-09-26T15:15:38.184Z,14.69
2018-09-26T15:18:08.857Z,14.60
2018-09-26T15:20:39.106Z,14.53
2018-09-26T15:23:09.799Z,14.44
2018-09-26T15:25:39.969Z,14.39
2018-09-26T15:28:10.191Z,14.35
2018-09-26T15:30:42.365Z,14.26
2018-09-26T15:33:13.448Z,14.18
2018-09-26T15:35:43.637Z,14.12
2018-09-26T15:38:14.009Z,14.06
2018-09-26T15:40:47.154Z,14.01
2018-09-26T15:43:23.549Z,13.92
2018-09-26T15:45:54.620Z,13.84
2018-09-26T15:48:27.352Z,13.79
2018-09-26T15:50:59.227Z,13.73
2018-09-26T15:53:31.469Z,13.66
2018-09-26T15:56:01.672Z,13.57
2018-09-26T15:58:36.008Z,13.53
2018-09-26T16:01:06.334Z,13.48
2018-09-26T16:03:36.476Z,13.41
2018-09-26T16:06:07.288Z,13.35
2018-09-26T16:08:38.831Z,13.28
2018-09-26T16:11:11.397Z,13.21
2018-09-26T16:13:42.817Z,13.14
2018-09-26T16:16:14.950Z,13.10
2018-09-26T16:18:46.817Z,13.08
2018-09-26T16:21:21.406Z,13.04
2018-09-26T16:23:52.786Z,12.96
2018-09-26T16:26:26.956Z,12.91
2018-09-26T16:29:02.187Z,12.86
2018-09-26T16:31:34.404Z,12.82
2018-09-26T16:34:10.460Z,12.80
2018-09-26T16:36:42.381Z,12.75
2018-09-26T16:39:16.621Z,12.64
2018-09-26T16:41:48.384Z,12.58
2018-09-26T16:44:19.442Z,12.53
2018-09-26T16:46:52.094Z,12.46
2018-09-26T16:49:24.544Z,12.36
2018-09-26T16:51:55.325Z,12.29
2018-09-26T16:54:25.658Z,12.23
2018-09-26T16:56:57.491Z,12.13
2018-09-26T16:59:28.228Z,12.03
2018-09-26T17:02:05.031Z,11.94
2018-09-26T17:04:37.908Z,11.88
2018-09-26T17:07:10.588Z,11.83
2018-09-26T17:09:40.979Z,11.79
2018-09-26T17:12:16.357Z,11.72
2018-09-26T17:14:48.647Z,11.58
2018-09-26T17:20:29.690Z,11.42
2018-09-26T17:23:02.145Z,11.31
2018-09-26T17:25:40.602Z,11.20
2018-09-26T17:28:13.681Z,11.07
2018-09-26T17:33:22.366Z,11.14
2018-09-26T17:35:54.952Z,11.10
2018-09-26T17:38:25.756Z,11.00
2018-09-26T17:40:59.988Z,11.00
2018-09-26T17:43:32.503Z,10.97
2018-09-26T17:46:09.929Z,10.93
2018-09-26T17:48:41.012Z,10.86
2018-09-26T17:51:17.288Z,10.75
2018-09-26T17:53:52.739Z,10.71
2018-09-26T17:56:28.611Z,10.69
2018-09-26T17:59:03.453Z,10.81
2018-09-26T18:01:36.530Z,10.78
2018-09-26T18:04:09.432Z,10.71
2018-09-26T18:06:46.320Z,10.61
2018-09-26T18:09:17.989Z,10.59
2018-09-26T18:14:28.661Z,10.54
2018-09-26T18:17:00.268Z,10.53
2018-09-26T18:19:30.659Z,10.50
2018-09-26T18:22:01.681Z,10.48
2018-09-26T18:24:33.644Z,10.47
2018-09-26T18:27:09.703Z,10.39
2018-09-26T18:29:43.524Z,10.37
2018-09-26T18:32:15.177Z,10.45
2018-09-26T18:34:47.321Z,10.41
2018-09-26T18:37:18.172Z,10.37
2018-09-26T18:39:50.521Z,10.45
2018-09-26T18:42:25.425Z,10.48
2018-09-26T18:44:58.934Z,10.50
2018-09-26T18:47:29.739Z,10.57
2018-09-26T18:50:03.582Z,10.54
2018-09-26T18:52:37.176Z,10.48
2018-09-26T18:55:14.241Z,10.61
2018-09-26T18:57:51.465Z,10.63
2018-09-26T19:00:25.992Z,10.68
2018-09-26T19:02:56.785Z,10.72
2018-09-26T19:05:39.184Z,10.78
2018-09-26T19:08:19.337Z,10.81
2018-09-26T19:10:55.095Z,10.81
2018-09-26T19:13:37.412Z,10.73
2018-09-26T19:16:13.285Z,10.74
2018-09-26T19:18:49.571Z,10.79
2018-09-26T19:21:28.557Z,10.76
2018-09-26T19:24:00.887Z,10.75
2018-09-26T19:26:32.947Z,10.76
2018-09-26T19:29:22.607Z,10.79
2018-09-26T19:31:56.621Z,10.83
2018-09-26T19:34:46.003Z,10.86
2018-09-26T19:37:17.954Z,10.82
2018-09-26T19:39:50.314Z,10.72
2018-09-26T19:42:24.905Z,10.64
2018-09-26T19:44:59.513Z,10.53
2018-09-26T19:47:34.429Z,10.51
2018-09-26T19:50:06.189Z,10.50
2018-09-26T19:52:38.142Z,10.45
2018-09-26T19:55:11.646Z,10.42
2018-09-26T19:57:59.821Z,10.34
2018-09-26T20:00:33.077Z,10.29
2018-09-26T20:03:04.930Z,10.24
2018-09-26T20:05:53.276Z,10.17
2018-09-26T20:08:24.196Z,10.16
2018-09-26T20:10:57.350Z,10.03
2018-09-26T20:13:31.151Z,9.89
2018-09-26T20:16:05.662Z,9.77
2018-09-26T20:18:50.069Z,9.66
2018-09-26T20:21:24.462Z,9.55
2018-09-26T20:23:58.793Z,9.44
2018-09-26T20:26:29.196Z,9.37
2018-09-26T20:29:03.190Z,9.34
2018-09-26T20:31:33.944Z,9.30
2018-09-26T20:34:06.417Z,9.23
2018-09-26T20:36:38.018Z,9.13
2018-09-26T20:39:11.191Z,9.06
2018-09-26T20:41:43.688Z,9.04
2018-09-26T20:44:16.476Z,9.00
2018-09-26T20:46:46.538Z,8.90
2018-09-26T20:49:17.851Z,8.85
2018-09-26T20:51:51.315Z,8.76
2018-09-26T20:54:23.020Z,8.75
2018-09-26T20:56:57.867Z,8.72
2018-09-26T20:59:30.514Z,8.71
2018-09-26T21:02:00.938Z,8.68
2018-09-26T21:04:30.634Z,8.68
2018-09-26T21:07:01.500Z,8.64
2018-09-26T21:12:11.942Z,8.56
2018-09-26T21:14:52.301Z,8.49
2018-09-26T21:17:25.125Z,8.46
2018-09-26T21:19:57.899Z,8.40
2018-09-26T21:22:29.353Z,8.34
2018-09-26T21:25:01.464Z,8.27
2018-09-26T21:27:32.153Z,8.30
2018-09-26T21:30:06.323Z,8.29
2018-09-26T21:32:37.776Z,8.34
2018-09-26T21:35:08.330Z,8.32
2018-09-26T21:37:38.011Z,8.36
2018-09-26T21:40:07.902Z,8.35
2018-09-26T21:42:40.846Z,8.29
2018-09-26T21:45:13.524Z,8.23
2018-09-26T21:47:45.565Z,8.20
2018-09-26T21:50:17.305Z,8.19
2018-09-26T21:52:49.007Z,8.25
2018-09-26T21:55:18.721Z,8.23
2018-09-26T21:57:49.312Z,8.11
2018-09-26T22:00:19.536Z,8.06
2018-09-26T22:02:50.062Z,8.06
2018-09-26T22:05:20.929Z,8.03
2018-09-26T22:07:52.609Z,8.06
2018-09-26T22:10:23.146Z,8.03
2018-09-26T22:12:55.461Z,7.99
2018-09-26T22:15:27.962Z,7.94
2018-09-26T22:17:57.615Z,7.87
2018-09-26T22:20:31.320Z,7.81
2018-09-26T22:23:01.710Z,7.77
2018-09-26T22:25:31.419Z,7.76
2018-09-26T22:28:01.453Z,7.78
2018-09-26T22:30:31.199Z,7.79
2018-09-26T22:33:03.402Z,7.74
2018-09-26T22:35:34.154Z,7.72
2018-09-26T22:38:04.849Z,7.70
2018-09-26T22:40:38.522Z,7.61
2018-09-26T22:43:11.466Z,7.52
2018-09-26T22:45:41.132Z,7.47
2018-09-26T22:48:11.142Z,7.48
2018-09-26T22:50:40.916Z,7.42
2018-09-26T22:53:10.588Z,7.47
2018-09-26T22:55:41.312Z,7.44
2018-09-26T22:58:14.961Z,7.42
2018-09-26T23:00:49.004Z,7.42
2018-09-26T23:03:20.908Z,7.37
2018-09-26T23:05:59.347Z,7.34
2018-09-26T23:08:29.953Z,7.32
2018-09-26T23:11:02.105Z,7.28
2018-09-26T23:13:33.047Z,7.22
2018-09-26T23:16:04.370Z,7.12
2018-09-26T23:18:34.988Z,7.10
2018-09-26T23:21:06.075Z,7.06
2018-09-26T23:23:36.572Z,7.05
2018-09-26T23:26:07.457Z,7.04
2018-09-26T23:28:38.992Z,6.94
2018-09-26T23:31:09.995Z,6.95
2018-09-26T23:33:40.690Z,6.96
2018-09-26T23:36:12.875Z,6.99
2018-09-26T23:38:43.468Z,7.00
2018-09-26T23:41:13.912Z,6.92
2018-09-26T23:43:45.013Z,6.88
2018-09-26T23:46:15.587Z,6.88
2018-09-26T23:48:46.686Z,6.86
2018-09-26T23:51:18.232Z,6.87
2018-09-26T23:53:48.807Z,6.79
2018-09-26T23:56:19.424Z,6.75
2018-09-26T23:58:51.766Z,6.74
